createdAt,value
2019-01-19T00:02:10.912Z,5.62
2019-01-19T00:05:27.281Z,5.65
2019-01-19T00:08:27.680Z,5.78
2019-01-19T00:11:53.087Z,5.90
2019-01-19T00:14:43.745Z,5.92
2019-01-19T00:17:47.121Z,5.87
2019-01-19T00:20:40.570Z,6.10
2019-01-19T00:23:40.184Z,6.87
2019-01-19T00:26:44.903Z,6.20
2019-01-19T00:29:39.947Z,6.15
2019-01-19T00:32:34.686Z,6.58
2019-01-19T00:35:49.837Z,6.30
2019-01-19T00:38:55.124Z,6.67
2019-01-19T00:42:20.634Z,6.33
2019-01-19T00:45:20.884Z,5.80
2019-01-19T00:48:19.545Z,6.35
2019-01-19T00:51:22.705Z,6.37
2019-01-19T00:53:57.671Z,6.20
2019-01-19T00:56:47.330Z,6.42
2019-01-19T00:59:21.194Z,6.65
2019-01-19T01:02:18.935Z,6.50
2019-01-19T01:05:31.581Z,6.67
2019-01-19T01:08:55.362Z,6.75
2019-01-19T01:11:49.299Z,6.83
2019-01-19T01:14:57.764Z,6.78
2019-01-19T01:17:53.407Z,6.00
2019-01-19T01:20:50.399Z,6.35
2019-01-19T01:23:59.574Z,6.20
2019-01-19T01:27:13.280Z,6.03
2019-01-19T01:30:15.028Z,6.58
2019-01-19T01:33:37.921Z,5.67
2019-01-19T01:37:03.754Z,6.30
2019-01-19T01:40:16.501Z,6.60
2019-01-19T01:43:31.258Z,5.92
2019-01-19T01:46:50.853Z,6.37
2019-01-19T01:49:44.278Z,6.47
2019-01-19T01:52:39.105Z,6.42
2019-01-19T01:55:44.243Z,6.40
2019-01-19T01:58:24.370Z,6.25
2019-01-19T02:01:21.089Z,6.25
2019-01-19T02:04:23.362Z,6.22
2019-01-19T02:07:38.606Z,6.30
2019-01-19T02:10:39.719Z,6.85
2019-01-19T02:14:01.880Z,6.00
2019-01-19T02:17:06.747Z,6.67
2019-01-19T02:20:01.483Z,6.70
2019-01-19T02:23:38.841Z,6.20
2019-01-19T02:27:04.227Z,6.30
2019-01-19T02:30:31.143Z,6.65
2019-01-19T02:33:38.659Z,6.50
2019-01-19T02:36:34.174Z,6.65
2019-01-19T02:39:25.079Z,6.40
2019-01-19T02:42:12.120Z,6.55
2019-01-19T02:45:10.554Z,7.12
2019-01-19T02:48:15.029Z,6.80
2019-01-19T02:51:31.476Z,6.78
2019-01-19T02:54:31.045Z,6.97
2019-01-19T02:57:40.104Z,7.33
2019-01-19T03:00:43.594Z,7.17
2019-01-19T03:04:02.783Z,6.92
2019-01-19T03:07:08.075Z,6.12
2019-01-19T03:10:37.578Z,7.50
2019-01-19T03:13:53.226Z,7.30
2019-01-19T03:17:14.360Z,7.15
2019-01-19T03:20:06.458Z,7.10
2019-01-19T03:22:59.078Z,6.70
2019-01-19T03:25:54.771Z,6.75
2019-01-19T03:29:15.326Z,7.55
2019-01-19T03:32:40.413Z,6.80
2019-01-19T03:35:53.422Z,8.18
2019-01-19T03:39:15.369Z,7.83
2019-01-19T03:42:16.752Z,7.28
2019-01-19T03:45:38.230Z,9.00
2019-01-19T03:48:35.347Z,7.90
2019-01-19T03:51:50.038Z,8.35
2019-01-19T03:54:30.390Z,7.35
2019-01-19T03:57:34.097Z,7.30
2019-01-19T04:00:41.456Z,8.08
2019-01-19T04:04:18.722Z,7.78
2019-01-19T04:07:14.668Z,7.92
2019-01-19T04:10:14.906Z,7.65
2019-01-19T04:13:28.402Z,8.10
2019-01-19T04:16:52.769Z,9.13
2019-01-19T04:19:53.187Z,8.13
2019-01-19T04:22:55.906Z,8.95
2019-01-19T04:26:01.963Z,8.43
2019-01-19T04:28:31.455Z,9.95
2019-01-19T04:31:00.836Z,9.30
2019-01-19T04:33:30.193Z,9.33
2019-01-19T04:35:59.553Z,9.75
2019-01-19T04:38:29.493Z,9.18
2019-01-19T04:40:58.980Z,10.43
2019-01-19T04:43:28.436Z,10.58
2019-01-19T04:45:57.850Z,11.18
2019-01-19T04:48:27.313Z,10.72
2019-01-19T04:50:56.749Z,9.45
2019-01-19T04:53:26.774Z,9.80
2019-01-19T04:55:56.119Z,10.80
2019-01-19T04:58:25.727Z,11.97
2019-01-19T05:00:55.080Z,10.32
2019-01-19T05:03:24.478Z,10.78
2019-01-19T05:05:53.902Z,9.08
2019-01-19T05:08:23.298Z,9.38
2019-01-19T05:10:52.749Z,8.98
2019-01-19T05:13:22.132Z,10.18
2019-01-19T05:15:51.469Z,9.38
2019-01-19T05:18:21.050Z,9.70
2019-01-19T05:20:51.925Z,9.65
2019-01-19T05:23:21.423Z,8.98
2019-01-19T05:25:50.767Z,8.45
2019-01-19T05:28:20.384Z,9.40
2019-01-19T05:30:49.745Z,9.73
2019-01-19T05:33:19.143Z,10.72
2019-01-19T05:35:48.483Z,10.15
2019-01-19T05:38:17.955Z,11.00
2019-01-19T05:40:47.446Z,10.82
2019-01-19T05:43:16.879Z,11.18
2019-01-19T05:45:46.266Z,10.72
2019-01-19T05:48:15.654Z,11.30
2019-01-19T05:50:45.275Z,10.25
2019-01-19T05:53:14.620Z,10.68
2019-01-19T05:55:44.031Z,10.45
2019-01-19T05:58:13.485Z,11.43
2019-01-19T06:00:42.945Z,10.78
2019-01-19T06:03:14.509Z,11.30
2019-01-19T06:05:46.338Z,10.38
2019-01-19T06:08:15.678Z,11.65
2019-01-19T06:10:45.093Z,10.20
2019-01-19T06:13:14.513Z,11.70
2019-01-19T06:15:43.884Z,11.48
2019-01-19T06:18:13.543Z,12.90
2019-01-19T06:20:42.959Z,12.10
2019-01-19T06:23:12.357Z,11.60
2019-01-19T06:25:42.037Z,11.68
2019-01-19T06:28:11.492Z,10.25
2019-01-19T06:30:40.996Z,12.95
2019-01-19T06:33:10.358Z,12.10
2019-01-19T06:35:41.814Z,12.65
2019-01-19T06:38:11.256Z,11.88
2019-01-19T06:40:40.635Z,12.28
2019-01-19T06:43:10.012Z,12.60
2019-01-19T06:45:39.391Z,13.43
2019-01-19T06:48:08.857Z,12.88
2019-01-19T06:50:38.273Z,12.82
2019-01-19T06:53:07.697Z,12.68
2019-01-19T06:55:37.710Z,12.88
2019-01-19T06:58:07.148Z,13.20
2019-01-19T07:00:36.515Z,12.75
2019-01-19T07:03:06.255Z,12.90
2019-01-19T07:05:35.593Z,13.10
2019-01-19T07:08:04.990Z,14.33
2019-01-19T07:10:34.351Z,14.03
2019-01-19T07:13:03.797Z,13.22
2019-01-19T07:15:33.445Z,14.30
2019-01-19T07:18:02.931Z,12.53
2019-01-19T07:20:32.692Z,12.43
2019-01-19T07:23:02.093Z,12.05
2019-01-19T07:25:31.569Z,12.55
2019-01-19T07:28:01.017Z,12.33
2019-01-19T07:30:30.561Z,12.43
2019-01-19T07:32:59.983Z,12.58
2019-01-19T07:35:29.652Z,13.15
2019-01-19T07:37:59.019Z,12.93
2019-01-19T07:40:28.452Z,12.50
2019-01-19T07:43:01.291Z,13.05
2019-01-19T07:45:30.805Z,12.93
2019-01-19T07:48:00.139Z,13.30
2019-01-19T07:50:29.565Z,13.15
2019-01-19T07:52:58.971Z,12.50
2019-01-19T07:55:28.360Z,13.48
2019-01-19T07:57:57.925Z,28.45
2019-01-19T08:00:29.536Z,12.88
2019-01-19T08:02:58.932Z,12.07
2019-01-19T08:05:28.451Z,12.23
2019-01-19T08:07:57.879Z,12.58
2019-01-19T08:10:27.329Z,13.62
2019-01-19T08:12:56.775Z,13.00
2019-01-19T08:15:27.135Z,12.58
2019-01-19T08:17:56.621Z,12.35
2019-01-19T08:20:25.987Z,12.63
2019-01-19T08:22:55.417Z,12.78
2019-01-19T08:25:24.823Z,13.10
2019-01-19T08:27:54.496Z,15.63
2019-01-19T08:30:25.829Z,13.95
2019-01-19T08:32:55.207Z,14.33
2019-01-19T08:35:24.717Z,13.70
2019-01-19T08:37:54.634Z,14.78
2019-01-19T08:40:26.389Z,13.72
2019-01-19T08:43:05.993Z,14.05
2019-01-19T08:45:35.575Z,14.65
2019-01-19T08:48:04.997Z,14.40
2019-01-19T08:50:34.420Z,16.45
2019-01-19T08:53:03.900Z,15.72
2019-01-19T08:55:33.565Z,14.07
2019-01-19T08:58:03.005Z,16.62
2019-01-19T09:00:32.411Z,16.87
2019-01-19T09:03:01.959Z,15.23
2019-01-19T09:05:31.505Z,14.70
2019-01-19T09:08:00.974Z,13.00
2019-01-19T09:10:30.400Z,12.90
2019-01-19T09:13:02.062Z,12.73
2019-01-19T09:15:31.456Z,12.23
2019-01-19T09:18:00.949Z,13.80
2019-01-19T09:20:30.617Z,12.85
2019-01-19T09:23:05.104Z,10.82
2019-01-19T09:25:34.974Z,11.68
2019-01-19T09:28:04.597Z,10.93
2019-01-19T09:30:34.007Z,11.88
2019-01-19T09:33:06.353Z,10.78
2019-01-19T09:35:35.772Z,10.78
2019-01-19T09:38:05.344Z,11.00
2019-01-19T09:40:34.939Z,12.23
2019-01-19T09:43:04.619Z,11.48
2019-01-19T09:45:34.109Z,12.25
2019-01-19T09:48:03.823Z,11.00
2019-01-19T09:50:33.370Z,9.83
2019-01-19T09:53:02.936Z,10.72
2019-01-19T09:55:32.428Z,11.70
2019-01-19T09:58:01.921Z,12.23
2019-01-19T10:00:36.641Z,11.65
2019-01-19T10:03:06.153Z,10.38
2019-01-19T10:05:35.629Z,12.50
2019-01-19T10:08:05.219Z,11.63
2019-01-19T10:10:34.724Z,11.55
2019-01-19T10:13:04.212Z,13.38
2019-01-19T10:15:33.656Z,13.45
2019-01-19T10:18:03.263Z,13.38
2019-01-19T10:20:32.682Z,12.53
2019-01-19T10:23:02.108Z,12.45
2019-01-19T10:25:31.613Z,10.68
2019-01-19T10:28:01.058Z,10.72
2019-01-19T10:30:30.469Z,11.75
2019-01-19T10:32:59.958Z,13.98
2019-01-19T10:35:29.445Z,11.93
2019-01-19T10:37:58.899Z,12.95
2019-01-19T10:40:28.608Z,11.43
2019-01-19T10:42:58.638Z,11.38
2019-01-19T10:45:28.426Z,12.93
2019-01-19T10:47:58.088Z,14.18
2019-01-19T10:50:27.759Z,11.68
2019-01-19T10:52:57.368Z,12.07
2019-01-19T10:55:26.987Z,12.65
2019-01-19T10:57:56.550Z,12.95
2019-01-19T11:00:28.176Z,11.88
2019-01-19T11:02:58.301Z,12.90
2019-01-19T11:05:28.459Z,14.25
2019-01-19T11:08:03.966Z,14.38
2019-01-19T11:10:32.221Z,12.40
2019-01-19T11:13:01.771Z,13.28
2019-01-19T11:15:31.342Z,13.08
2019-01-19T11:18:01.023Z,11.45
2019-01-19T11:20:30.763Z,12.37
2019-01-19T11:23:01.054Z,13.88
2019-01-19T11:25:30.856Z,12.75
2019-01-19T11:28:02.123Z,13.98
2019-01-19T11:30:32.342Z,12.60
2019-01-19T11:33:01.933Z,13.60
2019-01-19T11:35:31.740Z,13.13
2019-01-19T11:38:01.224Z,13.18
2019-01-19T11:40:35.691Z,14.10
2019-01-19T11:43:06.185Z,11.80
2019-01-19T11:45:35.678Z,12.53
2019-01-19T11:48:06.924Z,12.60
2019-01-19T11:50:37.147Z,11.12
2019-01-19T11:53:06.781Z,11.65
2019-01-19T11:55:36.221Z,11.65
2019-01-19T11:58:06.994Z,12.20
2019-01-19T12:00:38.574Z,12.98
2019-01-19T12:03:08.469Z,11.63
2019-01-19T12:05:39.187Z,12.03
2019-01-19T12:08:09.877Z,12.33
2019-01-19T12:10:39.420Z,10.70
2019-01-19T12:13:08.890Z,11.30
2019-01-19T12:15:38.461Z,11.93
2019-01-19T12:18:07.937Z,10.60
2019-01-19T12:20:39.764Z,11.85
2019-01-19T12:23:09.528Z,11.50
2019-01-19T12:25:39.951Z,11.18
2019-01-19T12:28:09.636Z,14.95
2019-01-19T12:30:40.718Z,12.88
2019-01-19T12:33:10.123Z,13.62
2019-01-19T12:35:39.538Z,13.08
2019-01-19T12:38:08.961Z,13.58
2019-01-19T12:40:38.619Z,13.70
2019-01-19T12:43:19.641Z,13.95
2019-01-19T12:45:54.729Z,12.68
2019-01-19T12:48:24.241Z,13.18
2019-01-19T12:50:56.835Z,10.63
2019-01-19T12:53:26.922Z,9.68
2019-01-19T12:55:57.368Z,10.53
2019-01-19T12:58:26.846Z,11.03
2019-01-19T13:00:56.616Z,11.43
2019-01-19T13:03:26.433Z,11.15
2019-01-19T13:06:05.395Z,11.30
2019-01-19T13:08:37.009Z,12.20
2019-01-19T13:11:19.974Z,13.03
2019-01-19T13:13:50.196Z,11.53
2019-01-19T13:16:48.964Z,11.30
2019-01-19T13:19:45.062Z,13.35
2019-01-19T13:23:13.830Z,13.38
2019-01-19T13:26:26.603Z,12.78
2019-01-19T13:30:04.541Z,11.68
2019-01-19T13:33:04.421Z,12.00
2019-01-19T13:35:54.031Z,11.97
2019-01-19T13:39:10.540Z,10.80
2019-01-19T13:42:14.884Z,12.80
2019-01-19T13:45:30.078Z,12.65
2019-01-19T13:48:48.457Z,11.85
2019-01-19T13:51:31.820Z,12.85
2019-01-19T13:54:38.186Z,11.80
2019-01-19T13:57:56.259Z,11.85
2019-01-19T14:00:43.183Z,13.83
2019-01-19T14:03:58.229Z,12.20
2019-01-19T14:07:01.669Z,12.70
2019-01-19T14:10:12.408Z,12.70
2019-01-19T14:13:08.226Z,12.37
2019-01-19T14:16:13.555Z,11.80
2019-01-19T14:19:08.109Z,12.15
2019-01-19T14:22:27.439Z,12.47
2019-01-19T14:25:25.475Z,13.40
2019-01-19T14:28:34.355Z,12.70
2019-01-19T14:31:28.535Z,12.93
2019-01-19T14:34:32.369Z,12.50
2019-01-19T14:38:03.676Z,12.03
2019-01-19T14:41:07.867Z,13.00
2019-01-19T14:44:03.029Z,11.78
2019-01-19T14:47:05.115Z,11.15
2019-01-19T14:50:19.735Z,11.70
2019-01-19T14:53:38.365Z,11.57
2019-01-19T14:56:43.137Z,11.78
2019-01-19T14:59:52.058Z,12.07
2019-01-19T15:03:03.647Z,12.35
2019-01-19T15:06:03.897Z,12.03
2019-01-19T15:09:03.972Z,12.68
2019-01-19T15:12:01.803Z,12.40
2019-01-19T15:14:57.584Z,13.22
2019-01-19T15:18:03.581Z,11.30
2019-01-19T15:20:40.914Z,10.95
2019-01-19T15:23:42.874Z,12.15
2019-01-19T15:26:52.927Z,11.97
2019-01-19T15:29:46.768Z,11.60
2019-01-19T15:32:52.848Z,11.40
2019-01-19T15:35:58.740Z,12.10
2019-01-19T15:39:10.926Z,12.23
2019-01-19T15:42:13.573Z,11.90
2019-01-19T15:45:35.797Z,12.15
2019-01-19T15:48:32.885Z,12.15
2019-01-19T15:51:30.520Z,12.00
2019-01-19T15:54:58.998Z,11.95
2019-01-19T15:58:15.015Z,12.78
2019-01-19T16:01:44.675Z,12.33
2019-01-19T16:05:04.001Z,12.37
2019-01-19T16:07:49.851Z,12.23
2019-01-19T16:10:44.709Z,13.18
2019-01-19T16:13:26.295Z,13.53
2019-01-19T16:16:44.418Z,14.35
2019-01-19T16:20:01.272Z,12.47
2019-01-19T16:22:58.982Z,12.88
2019-01-19T16:26:12.169Z,13.50
2019-01-19T16:28:55.891Z,12.82
2019-01-19T16:31:46.096Z,13.00
2019-01-19T16:34:44.006Z,14.50
2019-01-19T16:37:27.537Z,13.80
2019-01-19T16:40:23.948Z,12.68
2019-01-19T16:43:24.015Z,12.70
2019-01-19T16:46:46.465Z,14.30
2019-01-19T16:49:41.208Z,14.03
2019-01-19T16:53:04.952Z,14.65
2019-01-19T16:55:57.373Z,14.38
2019-01-19T16:58:57.076Z,14.73
2019-01-19T17:01:38.159Z,13.10
2019-01-19T17:04:31.890Z,13.65
2019-01-19T17:07:13.315Z,13.18
2019-01-19T17:10:03.126Z,13.45
2019-01-19T17:13:03.961Z,15.15
2019-01-19T17:16:03.131Z,14.03
2019-01-19T17:19:14.178Z,12.82
2019-01-19T17:22:16.270Z,14.30
2019-01-19T17:25:13.365Z,13.98
2019-01-19T17:28:14.226Z,14.60
2019-01-19T17:31:21.308Z,15.72
2019-01-19T17:34:14.505Z,16.73
2019-01-19T17:36:53.154Z,16.82
2019-01-19T17:39:40.372Z,17.32
2019-01-19T17:42:31.059Z,18.90
2019-01-19T17:45:28.486Z,19.23
2019-01-19T17:48:37.202Z,17.98
2019-01-19T17:51:50.372Z,17.10
2019-01-19T17:54:48.377Z,19.15
2019-01-19T17:58:22.770Z,19.07
2019-01-19T18:01:03.717Z,19.77
2019-01-19T18:04:06.150Z,18.75
2019-01-19T18:07:20.249Z,19.07
2019-01-19T18:10:51.519Z,20.75
2019-01-19T18:14:00.247Z,23.50
2019-01-19T18:17:18.214Z,22.17
2019-01-19T18:20:08.989Z,22.17
2019-01-19T18:23:14.176Z,22.02
2019-01-19T18:26:18.964Z,21.52
2019-01-19T18:29:23.731Z,20.82
2019-01-19T18:32:37.076Z,22.00
2019-01-19T18:35:35.364Z,22.15
2019-01-19T18:38:45.531Z,24.27
2019-01-19T18:41:50.391Z,21.55
2019-01-19T18:44:55.678Z,23.15
2019-01-19T18:47:53.376Z,20.50
2019-01-19T18:51:01.441Z,21.15
2019-01-19T18:53:52.548Z,20.08
2019-01-19T18:57:14.955Z,18.77
2019-01-19T19:00:22.707Z,18.95
2019-01-19T19:03:40.553Z,18.92
2019-01-19T19:06:50.647Z,18.52
2019-01-19T19:10:06.776Z,19.05
2019-01-19T19:13:01.751Z,17.48
2019-01-19T19:16:02.677Z,19.02
2019-01-19T19:19:06.330Z,18.32
2019-01-19T19:22:05.178Z,20.57
2019-01-19T19:25:13.484Z,19.87
2019-01-19T19:28:17.711Z,18.32
2019-01-19T19:31:18.731Z,18.00
2019-01-19T19:34:35.499Z,20.35
2019-01-19T19:37:34.059Z,18.35
2019-01-19T19:40:28.130Z,19.95
2019-01-19T19:43:36.211Z,19.27
2019-01-19T19:46:37.599Z,18.67
2019-01-19T19:49:39.980Z,20.32
2019-01-19T19:52:09.494Z,19.87
2019-01-19T19:54:39.583Z,20.12
2019-01-19T19:57:09.433Z,18.80
2019-01-19T19:59:38.848Z,18.98
2019-01-19T20:02:08.625Z,20.72
2019-01-19T20:04:37.998Z,22.70
2019-01-19T20:07:07.599Z,21.77
2019-01-19T20:09:40.141Z,23.47
2019-01-19T20:12:10.854Z,21.80
2019-01-19T20:14:42.326Z,21.60
2019-01-19T20:17:13.501Z,20.75
2019-01-19T20:19:43.034Z,22.05
2019-01-19T20:22:12.570Z,22.07
2019-01-19T20:24:41.967Z,20.27
2019-01-19T20:27:11.604Z,22.15
2019-01-19T20:29:41.133Z,21.30
2019-01-19T20:32:10.751Z,20.95
2019-01-19T20:34:40.346Z,20.80
2019-01-19T20:37:09.965Z,21.17
2019-01-19T20:39:39.795Z,23.85
2019-01-19T20:42:09.415Z,24.50
2019-01-19T20:44:39.078Z,23.35
2019-01-19T20:47:08.629Z,23.95
2019-01-19T20:49:38.226Z,23.25
2019-01-19T20:52:07.993Z,21.93
2019-01-19T20:54:37.527Z,23.32
2019-01-19T20:57:06.967Z,21.20
2019-01-19T20:59:36.549Z,22.60
2019-01-19T21:02:06.064Z,24.77
2019-01-19T21:04:35.586Z,21.37
2019-01-19T21:07:05.281Z,21.77
2019-01-19T21:09:34.828Z,21.70
2019-01-19T21:12:04.482Z,21.07
2019-01-19T21:14:33.929Z,20.60
2019-01-19T21:17:03.375Z,19.52
2019-01-19T21:19:33.031Z,18.40
2019-01-19T21:22:03.547Z,19.27
2019-01-19T21:24:32.938Z,18.15
2019-01-19T21:27:02.419Z,17.40
2019-01-19T21:29:32.106Z,17.73
2019-01-19T21:32:01.575Z,17.92
2019-01-19T21:34:31.183Z,18.48
2019-01-19T21:37:00.731Z,16.50
2019-01-19T21:39:30.158Z,16.70
2019-01-19T21:41:59.627Z,17.50
2019-01-19T21:44:29.080Z,19.30
2019-01-19T21:46:58.724Z,18.70
2019-01-19T21:49:28.112Z,22.55
2019-01-19T21:51:57.617Z,20.32
2019-01-19T21:54:27.140Z,20.15
2019-01-19T21:56:56.603Z,21.17
2019-01-19T21:59:26.096Z,19.23
2019-01-19T22:01:55.630Z,21.75
2019-01-19T22:04:25.035Z,22.20
2019-01-19T22:06:56.361Z,20.77
2019-01-19T22:09:25.770Z,21.75
2019-01-19T22:11:56.987Z,22.58
2019-01-19T22:14:26.442Z,23.65
2019-01-19T22:16:56.069Z,21.87
2019-01-19T22:19:25.728Z,19.90
2019-01-19T22:21:55.630Z,21.12
2019-01-19T22:24:25.166Z,18.75
2019-01-19T22:26:55.393Z,19.62
2019-01-19T22:29:25.101Z,21.45
2019-01-19T22:31:55.163Z,18.82
2019-01-19T22:34:24.686Z,19.60
2019-01-19T22:36:54.593Z,19.30
2019-01-19T22:39:24.320Z,19.27
2019-01-19T22:41:54.029Z,19.12
2019-01-19T22:44:40.070Z,20.68
2019-01-19T22:47:09.615Z,21.00
2019-01-19T22:49:43.345Z,21.60
2019-01-19T22:52:12.907Z,20.40
2019-01-19T22:54:42.522Z,19.10
2019-01-19T22:57:13.457Z,19.48
2019-01-19T22:59:43.141Z,20.30
2019-01-19T23:02:13.548Z,19.30
2019-01-19T23:04:44.512Z,21.17
2019-01-19T23:07:13.957Z,19.50
2019-01-19T23:09:43.529Z,17.73
2019-01-19T23:12:13.084Z,20.05
2019-01-19T23:14:43.386Z,18.52
2019-01-19T23:17:13.126Z,20.10
2019-01-19T23:19:42.753Z,20.30
2019-01-19T23:22:12.400Z,20.75
2019-01-19T23:24:42.372Z,20.27
2019-01-19T23:27:12.311Z,21.45
2019-01-19T23:29:41.909Z,22.10
2019-01-19T23:32:11.623Z,20.00
2019-01-19T23:34:41.158Z,20.85
2019-01-19T23:37:12.917Z,18.45
2019-01-19T23:39:42.437Z,18.23
2019-01-19T23:42:11.967Z,18.80
2019-01-19T23:44:41.656Z,18.42
2019-01-19T23:47:11.190Z,18.23
2019-01-19T23:49:40.932Z,18.20
2019-01-19T23:52:12.823Z,19.48
2019-01-19T23:54:42.469Z,19.02
2019-01-19T23:57:11.958Z,18.07
2019-01-19T23:59:41.313Z,19.07
